createdAt,value
2023-07-07T00:00:58.970Z,73.09
2023-07-07T00:04:22.601Z,72.90
2023-07-07T00:07:46.646Z,72.54
2023-07-07T00:11:13.082Z,73.10
2023-07-07T00:14:37.056Z,72.74
2023-07-07T00:18:00.867Z,72.71
2023-07-07T00:21:25.460Z,72.54
2023-07-07T00:24:47.407Z,72.39
2023-07-07T00:28:09.032Z,72.09
2023-07-07T00:31:35.156Z,72.51
2023-07-07T00:34:56.983Z,72.40
2023-07-07T00:38:22.174Z,72.43
2023-07-07T00:41:46.215Z,72.35
2023-07-07T00:45:22.540Z,72.20
2023-07-07T00:48:45.872Z,72.02
2023-07-07T00:52:08.052Z,72.04
2023-07-07T00:55:41.643Z,72.33
2023-07-07T00:59:10.467Z,72.67
2023-07-07T01:02:35.382Z,72.78
2023-07-07T01:06:01.236Z,72.75
2023-07-07T01:09:23.062Z,72.83
2023-07-07T01:12:50.667Z,72.96
2023-07-07T01:16:35.331Z,72.85
2023-07-07T01:20:15.111Z,73.06
2023-07-07T01:23:51.862Z,73.15
2023-07-07T01:27:37.016Z,73.11
2023-07-07T01:31:29.499Z,73.18
2023-07-07T01:34:57.491Z,73.27
2023-07-07T01:38:40.460Z,73.40
2023-07-07T01:42:15.114Z,73.21
2023-07-07T01:46:07.552Z,72.89
2023-07-07T01:50:17.049Z,72.94
2023-07-07T01:53:41.692Z,73.11
2023-07-07T01:57:05.110Z,73.03
2023-07-07T02:00:29.475Z,73.06
2023-07-07T02:03:51.120Z,73.31
2023-07-07T02:07:13.143Z,73.44
2023-07-07T02:10:35.039Z,73.32
2023-07-07T02:13:58.806Z,73.34
2023-07-07T02:17:20.577Z,73.35
2023-07-07T02:20:42.301Z,73.30
2023-07-07T02:24:04.261Z,73.27
2023-07-07T02:27:25.923Z,73.32
2023-07-07T02:30:47.560Z,73.30
2023-07-07T02:34:13.654Z,73.29
2023-07-07T02:37:35.898Z,73.15
2023-07-07T02:40:58.322Z,73.34
2023-07-07T02:44:27.437Z,73.10
2023-07-07T02:47:49.197Z,73.71
2023-07-07T02:51:15.320Z,73.69
2023-07-07T02:54:37.056Z,73.84
2023-07-07T02:58:02.669Z,73.81
2023-07-07T03:01:25.074Z,73.40
2023-07-07T03:04:49.334Z,73.60
2023-07-07T03:08:11.590Z,73.67
2023-07-07T03:11:33.283Z,73.64
2023-07-07T03:14:58.356Z,73.57
2023-07-07T03:18:22.397Z,73.61
2023-07-07T03:21:49.134Z,73.79
2023-07-07T03:25:11.351Z,73.55
2023-07-07T03:28:32.959Z,73.38
2023-07-07T03:31:59.659Z,73.53
2023-07-07T03:35:21.439Z,73.61
2023-07-07T03:38:45.938Z,73.76
2023-07-07T03:42:10.068Z,73.62
2023-07-07T03:45:35.117Z,73.33
2023-07-07T03:48:57.660Z,73.59
2023-07-07T03:52:21.498Z,73.37
2023-07-07T03:55:43.177Z,73.39
2023-07-07T03:59:04.994Z,73.21
2023-07-07T04:02:26.712Z,73.52
2023-07-07T04:05:50.858Z,73.29
2023-07-07T04:09:12.905Z,73.51
2023-07-07T04:12:34.805Z,73.24
2023-07-07T04:16:12.916Z,73.45
2023-07-07T04:19:36.818Z,73.41
2023-07-07T04:22:58.460Z,72.92
2023-07-07T04:26:21.215Z,72.89
2023-07-07T04:29:43.157Z,72.91
2023-07-07T04:33:04.903Z,73.01
2023-07-07T04:36:26.699Z,72.57
2023-07-07T04:39:50.523Z,72.38
2023-07-07T04:43:12.408Z,71.90
2023-07-07T04:46:39.332Z,71.18
2023-07-07T04:50:01.273Z,70.84
2023-07-07T04:53:22.887Z,70.25
2023-07-07T04:56:48.992Z,70.22
2023-07-07T05:00:17.270Z,69.43
2023-07-07T05:03:40.762Z,69.56
2023-07-07T05:07:04.679Z,67.98
2023-07-07T05:10:26.604Z,67.82
2023-07-07T05:13:50.049Z,67.80
2023-07-07T05:17:14.336Z,68.71
2023-07-07T05:20:38.269Z,67.90
2023-07-07T05:24:00.328Z,66.64
2023-07-07T05:27:22.049Z,66.04
2023-07-07T05:30:43.740Z,66.40
2023-07-07T05:34:05.429Z,66.94
2023-07-07T05:37:27.600Z,67.68
2023-07-07T05:40:52.192Z,66.33
2023-07-07T05:44:16.371Z,66.92
2023-07-07T05:47:38.032Z,65.69
2023-07-07T05:51:05.645Z,65.96
2023-07-07T05:54:29.474Z,66.83
2023-07-07T05:57:51.092Z,65.31
2023-07-07T06:01:15.921Z,66.29
2023-07-07T06:04:37.750Z,65.80
2023-07-07T06:07:59.431Z,63.94
2023-07-07T06:11:23.589Z,63.94
2023-07-07T06:14:47.719Z,64.43
2023-07-07T06:18:09.438Z,62.94
2023-07-07T06:21:31.163Z,62.76
2023-07-07T06:24:53.595Z,61.42
2023-07-07T06:28:17.991Z,61.85
2023-07-07T06:31:39.662Z,59.87
2023-07-07T06:35:01.294Z,59.11
2023-07-07T06:38:22.944Z,59.47
2023-07-07T06:41:49.512Z,57.33
2023-07-07T06:45:11.412Z,56.82
2023-07-07T06:48:35.346Z,55.30
2023-07-07T06:51:59.613Z,56.85
2023-07-07T06:55:21.965Z,54.67
2023-07-07T06:58:43.637Z,54.55
2023-07-07T07:02:10.868Z,54.98
2023-07-07T07:05:32.623Z,53.64
2023-07-07T07:08:54.216Z,52.79
2023-07-07T07:12:19.439Z,52.46
2023-07-07T07:15:41.096Z,51.77
2023-07-07T07:19:05.224Z,48.06
2023-07-07T07:22:26.985Z,48.45
2023-07-07T07:25:50.906Z,47.14
2023-07-07T07:29:15.768Z,46.45
2023-07-07T07:32:39.984Z,46.56
2023-07-07T07:36:01.688Z,46.34
2023-07-07T07:39:24.287Z,45.69
2023-07-07T07:42:48.320Z,44.04
2023-07-07T07:46:11.988Z,44.15
2023-07-07T07:49:33.680Z,44.34
2023-07-07T07:52:55.421Z,45.25
2023-07-07T07:56:19.096Z,43.38
2023-07-07T07:59:43.733Z,42.60
2023-07-07T08:03:09.944Z,42.52
2023-07-07T08:06:32.267Z,41.18
2023-07-07T08:09:53.939Z,40.96
2023-07-07T08:13:27.834Z,41.75
2023-07-07T08:17:03.378Z,43.91
2023-07-07T08:20:32.006Z,42.98
2023-07-07T08:23:53.649Z,42.33
2023-07-07T08:30:46.498Z,42.31
2023-07-07T08:34:08.234Z,41.56
2023-07-07T08:37:30.012Z,41.62
2023-07-07T08:40:55.619Z,42.79
2023-07-07T08:44:20.498Z,41.16
2023-07-07T08:47:54.020Z,40.58
2023-07-07T08:51:24.710Z,39.63
2023-07-07T08:55:00.349Z,36.18
2023-07-07T08:58:46.356Z,37.79
2023-07-07T09:02:42.150Z,38.36
2023-07-07T09:06:30.259Z,38.90
2023-07-07T09:10:00.092Z,38.20
2023-07-07T09:13:36.853Z,36.40
2023-07-07T09:17:04.675Z,38.13
2023-07-07T09:20:29.978Z,36.36
2023-07-07T09:23:56.023Z,37.09
2023-07-07T09:27:22.347Z,37.17
2023-07-07T09:30:49.221Z,38.44
2023-07-07T09:34:16.721Z,37.98
2023-07-07T09:37:43.359Z,36.56
2023-07-07T09:41:29.238Z,36.87
2023-07-07T09:45:09.963Z,37.97
2023-07-07T09:48:38.561Z,38.81
2023-07-07T09:52:38.552Z,38.94
2023-07-07T09:56:02.819Z,39.73
2023-07-07T09:59:34.253Z,40.07
2023-07-07T10:02:57.700Z,39.03
2023-07-07T10:06:42.861Z,38.14
2023-07-07T10:10:06.740Z,38.92
2023-07-07T10:13:28.442Z,37.35
2023-07-07T10:17:08.896Z,36.53
2023-07-07T10:20:34.035Z,36.90
2023-07-07T10:23:57.914Z,36.82
2023-07-07T10:27:27.038Z,36.95
2023-07-07T10:30:49.415Z,37.24
2023-07-07T10:34:33.982Z,36.39
2023-07-07T10:38:04.682Z,36.38
2023-07-07T10:41:29.908Z,36.65
2023-07-07T10:44:53.087Z,35.76
2023-07-07T10:48:16.429Z,35.28
2023-07-07T10:51:57.743Z,35.87
2023-07-07T10:55:33.797Z,38.52
2023-07-07T10:59:25.389Z,36.63
2023-07-07T11:03:22.226Z,39.49
2023-07-07T11:07:12.783Z,37.73
2023-07-07T11:11:11.827Z,37.43
2023-07-07T11:15:05.649Z,37.51
2023-07-07T11:18:42.418Z,36.80
2023-07-07T11:22:15.792Z,38.13
2023-07-07T11:25:50.504Z,38.60
2023-07-07T11:29:30.985Z,36.71
2023-07-07T11:32:58.928Z,34.84
2023-07-07T11:36:29.651Z,37.01
2023-07-07T11:40:29.260Z,35.74
2023-07-07T11:44:12.553Z,37.74
2023-07-07T11:47:48.294Z,35.37
2023-07-07T11:51:30.648Z,35.09
2023-07-07T11:55:10.529Z,36.91
2023-07-07T11:58:37.804Z,38.73
2023-07-07T12:02:02.057Z,37.50
2023-07-07T12:05:33.477Z,39.17
2023-07-07T12:09:17.433Z,39.38
2023-07-07T12:12:46.389Z,40.20
2023-07-07T12:16:26.444Z,40.65
2023-07-07T12:19:54.966Z,40.54
2023-07-07T12:23:30.468Z,39.50
2023-07-07T12:27:05.604Z,37.70
2023-07-07T12:30:37.700Z,40.08
2023-07-07T12:34:35.780Z,39.39
2023-07-07T12:38:25.531Z,38.46
2023-07-07T12:41:49.621Z,38.89
2023-07-07T12:45:32.035Z,38.58
2023-07-07T12:48:59.317Z,38.64
2023-07-07T12:52:23.749Z,36.96
2023-07-07T12:56:08.069Z,37.52
2023-07-07T12:59:40.186Z,37.69
2023-07-07T13:03:26.238Z,35.93
2023-07-07T13:06:55.933Z,36.76
2023-07-07T13:10:46.278Z,37.05
2023-07-07T13:14:42.358Z,37.49
2023-07-07T13:18:11.418Z,37.19
2023-07-07T13:21:38.728Z,36.36
2023-07-07T13:25:07.223Z,36.93
2023-07-07T13:28:29.080Z,37.17
2023-07-07T13:31:52.700Z,37.43
2023-07-07T13:35:14.352Z,36.26
2023-07-07T13:38:41.967Z,35.77
2023-07-07T13:42:11.833Z,35.89
2023-07-07T13:45:36.148Z,36.00
2023-07-07T13:49:15.054Z,36.35
2023-07-07T13:52:43.705Z,36.31
2023-07-07T13:56:07.060Z,37.76
2023-07-07T13:59:30.501Z,38.20
2023-07-07T14:02:59.453Z,38.57
2023-07-07T14:06:22.397Z,37.42
2023-07-07T14:09:47.564Z,36.12
2023-07-07T14:13:37.833Z,35.36
2023-07-07T14:17:06.089Z,35.43
2023-07-07T14:20:35.374Z,35.63
2023-07-07T14:24:00.752Z,36.62
2023-07-07T14:27:27.836Z,35.94
2023-07-07T14:30:55.395Z,35.79
2023-07-07T14:34:20.602Z,35.48
2023-07-07T14:37:55.961Z,35.38
2023-07-07T14:41:24.236Z,35.98
2023-07-07T14:44:48.521Z,36.09
2023-07-07T14:48:23.559Z,35.28
2023-07-07T14:51:52.442Z,35.66
2023-07-07T14:55:17.343Z,35.90
2023-07-07T14:58:42.942Z,36.74
2023-07-07T15:02:30.661Z,36.89
2023-07-07T15:05:59.956Z,36.30
2023-07-07T15:09:24.755Z,35.41
2023-07-07T15:12:48.131Z,36.32
2023-07-07T15:16:15.295Z,35.98
2023-07-07T15:19:39.301Z,35.94
2023-07-07T15:23:03.198Z,36.21
2023-07-07T15:26:28.470Z,36.07
2023-07-07T15:29:57.182Z,37.22
2023-07-07T15:33:19.321Z,37.87
2023-07-07T15:36:41.170Z,38.16
2023-07-07T15:40:08.545Z,37.94
2023-07-07T15:43:32.351Z,38.44
2023-07-07T15:46:56.520Z,37.40
2023-07-07T15:50:24.877Z,38.66
2023-07-07T15:53:46.664Z,39.11
2023-07-07T15:57:14.889Z,39.27
2023-07-07T16:00:42.005Z,39.47
2023-07-07T16:04:05.984Z,39.35
2023-07-07T16:07:27.955Z,39.75
2023-07-07T16:10:52.054Z,39.71
2023-07-07T16:14:18.847Z,40.06
2023-07-07T16:17:45.203Z,40.10
2023-07-07T16:21:20.316Z,39.82
2023-07-07T16:24:42.270Z,39.64
2023-07-07T16:28:04.141Z,40.90
2023-07-07T16:31:30.352Z,40.68
2023-07-07T16:34:52.130Z,40.09
2023-07-07T16:38:13.750Z,40.54
2023-07-07T16:41:35.346Z,41.54
2023-07-07T16:44:59.416Z,40.39
2023-07-07T16:48:21.776Z,40.92
2023-07-07T16:51:44.553Z,42.01
2023-07-07T16:55:06.360Z,41.27
2023-07-07T16:58:28.042Z,41.96
2023-07-07T17:01:49.746Z,42.01
2023-07-07T17:05:15.991Z,41.56
2023-07-07T17:08:37.816Z,41.57
2023-07-07T17:12:03.697Z,41.91
2023-07-07T17:15:26.821Z,42.07
2023-07-07T17:18:54.335Z,42.08
2023-07-07T17:22:16.102Z,42.36
2023-07-07T17:25:37.775Z,42.33
2023-07-07T17:28:59.680Z,42.31
2023-07-07T17:32:21.320Z,43.09
2023-07-07T17:35:42.936Z,43.23
2023-07-07T17:39:11.009Z,44.10
2023-07-07T17:42:32.809Z,43.86
2023-07-07T17:45:54.480Z,43.33
2023-07-07T17:49:21.810Z,43.90
2023-07-07T17:52:48.531Z,43.86
2023-07-07T17:56:26.963Z,44.23
2023-07-07T17:59:51.262Z,43.90
2023-07-07T18:03:12.996Z,45.30
2023-07-07T18:06:37.100Z,45.80
2023-07-07T18:09:58.718Z,44.89
2023-07-07T18:13:23.414Z,44.04
2023-07-07T18:16:53.325Z,43.57
2023-07-07T18:21:17.445Z,43.15
2023-07-07T18:24:15.145Z,49.71
2023-07-07T18:27:36.981Z,48.79
2023-07-07T18:30:59.837Z,44.38
2023-07-07T18:34:21.801Z,43.33
2023-07-07T18:37:45.518Z,43.84
2023-07-07T18:41:17.109Z,44.61
2023-07-07T18:44:39.063Z,45.23
2023-07-07T18:48:04.190Z,47.21
2023-07-07T18:51:25.868Z,46.86
2023-07-07T18:54:47.499Z,45.19
2023-07-07T18:58:11.149Z,45.79
2023-07-07T19:01:35.964Z,46.01
2023-07-07T19:04:57.709Z,45.14
2023-07-07T19:08:19.727Z,45.37
2023-07-07T19:11:41.434Z,45.89
2023-07-07T19:15:03.890Z,45.18
2023-07-07T19:18:39.711Z,45.91
2023-07-07T19:22:11.763Z,47.70
2023-07-07T19:25:33.512Z,47.84
2023-07-07T19:28:56.061Z,48.69
2023-07-07T19:32:19.068Z,49.93
2023-07-07T19:35:40.832Z,48.85
2023-07-07T19:39:02.556Z,47.64
2023-07-07T19:42:24.209Z,48.11
2023-07-07T19:45:50.414Z,47.60
2023-07-07T19:49:19.777Z,47.46
2023-07-07T19:52:44.106Z,46.87
2023-07-07T19:56:05.805Z,46.39
2023-07-07T19:59:27.458Z,45.70
2023-07-07T20:02:52.921Z,46.01
2023-07-07T20:06:20.381Z,46.08
2023-07-07T20:09:42.022Z,48.21
2023-07-07T20:13:03.664Z,49.38
2023-07-07T20:16:34.771Z,49.39
2023-07-07T20:19:56.954Z,49.67
2023-07-07T20:23:20.805Z,49.72
2023-07-07T20:26:43.737Z,48.74
2023-07-07T20:30:14.531Z,49.56
2023-07-07T20:33:40.836Z,50.27
2023-07-07T20:37:02.422Z,50.69
2023-07-07T20:40:33.113Z,50.73
2023-07-07T20:43:54.731Z,51.45
2023-07-07T20:47:16.416Z,51.63
2023-07-07T20:50:43.463Z,53.10
2023-07-07T20:54:05.604Z,53.45
2023-07-07T20:57:27.329Z,53.78
2023-07-07T21:00:50.221Z,55.09
2023-07-07T21:04:11.947Z,54.71
2023-07-07T21:07:36.802Z,54.33
2023-07-07T21:10:58.639Z,54.16
2023-07-07T21:14:22.881Z,54.70
2023-07-07T21:17:45.063Z,55.79
2023-07-07T21:21:11.880Z,56.79
2023-07-07T21:24:33.564Z,55.05
2023-07-07T21:27:55.566Z,55.26
2023-07-07T21:31:22.724Z,55.78
2023-07-07T21:34:44.472Z,56.81
2023-07-07T21:38:17.120Z,56.58
2023-07-07T21:41:43.645Z,56.64
2023-07-07T21:45:09.462Z,55.55
2023-07-07T21:48:33.761Z,56.34
2023-07-07T21:51:55.774Z,55.23
2023-07-07T21:55:18.010Z,55.65
2023-07-07T21:58:42.622Z,55.81
2023-07-07T22:02:13.904Z,56.68
2023-07-07T22:05:38.453Z,56.70
2023-07-07T22:09:00.172Z,57.48
2023-07-07T22:12:21.797Z,57.78
2023-07-07T22:15:43.526Z,57.34
2023-07-07T22:19:05.116Z,57.87
2023-07-07T22:22:27.093Z,57.57
2023-07-07T22:25:49.136Z,58.72
2023-07-07T22:29:13.545Z,58.78
2023-07-07T22:32:40.050Z,58.36
2023-07-07T22:36:03.194Z,58.34
2023-07-07T22:39:29.280Z,58.19
2023-07-07T22:42:53.119Z,58.30
2023-07-07T22:46:22.109Z,59.00
2023-07-07T22:49:46.860Z,59.12
2023-07-07T22:53:10.526Z,58.89
2023-07-07T22:56:34.569Z,59.18
2023-07-07T22:59:56.225Z,59.45
2023-07-07T23:03:19.970Z,59.06
2023-07-07T23:06:42.053Z,60.22
2023-07-07T23:10:06.215Z,60.66
2023-07-07T23:13:30.079Z,60.49
2023-07-07T23:16:57.026Z,60.92
2023-07-07T23:20:24.906Z,61.53
2023-07-07T23:23:47.041Z,61.90
2023-07-07T23:27:12.390Z,62.43
2023-07-07T23:30:38.808Z,63.18
2023-07-07T23:34:00.630Z,63.74
2023-07-07T23:37:31.989Z,63.65
2023-07-07T23:40:53.767Z,63.56
2023-07-07T23:44:18.400Z,64.30
2023-07-07T23:47:44.976Z,64.37
2023-07-07T23:51:16.140Z,64.03
2023-07-07T23:54:37.811Z,65.00
2023-07-07T23:58:00.806Z,65.51
